首页
METAR-TAF:

METAR-TAF

机场 :

Wrangell, 阿拉斯加州, 美国

纬度: 56-29N, 经度: 132-22W, 海拔: 13米

当前天气观测

该预报发布于18分钟前的00:56 UTC
风速5节,风向西
温度 11°C
湿度 71%
气压 1027 hPa
能見度: 16.1公里
多云层高于6500英尺
多云层高于7500英尺

METAR: PAWG 270056Z 27005KT 10SM BKN065 BKN075 11/06 A3032 RMK AO2 SLP267 T01060061

时间: 17:14 (01:14 UTC)

预报

该预报发布于1小时和41分钟前的23:33 UTC
预报有效从27日的 00点(UTC)到 27日的 24点(UTC)
风速5节,风向
能見度: 10公里
散云层高于2500英尺
多云层高于3500英尺
附近有阵雨
从 27日的 0300点(UTC)
风速3节,风向多变
能見度: 10公里
多云层高于5000英尺
从 27日的 0900点(UTC)
风速3节,风向多变
能見度: 4.8公里
少量云层高于200英尺
散云层高于5000英尺
轻雾
从 27日的 1800点(UTC)
风速5节,风向
能見度: 10公里
散云层高于10000英尺

TAF: PAWG 262333Z 2700/2724 09005KT P6SM VCSH SCT025 BKN035 FM270300 VRB03KT P6SM BKN050 FM270900 VRB03KT 3SM BR FEW002 SCT050 FM271800 10005KT P6SM SCT100 AMD LTD TO CLD VIS AND WIND 2706/2715

超过4000个机场的气象观测和天气预报(METAR&TAF报告)。

可查询的气象台以黄色和红色小点在地图上表示。

将鼠标移到小点上方,可查看气象台名称。

然后点击查看天气观测和预报。

如需切换地图:点击带黑十字的绿色按钮放大地图;点击带横线的绿色按钮缩小地图;或者点击绿色箭头查看邻近地区的地图。


METAR-TAF: